KRIL/RIL METAR and TAF weather

Enter ICAO airport designator
Station Type Date Time Source
KRIL METAR 2019/10/15 02:53 UTC NOAA

KRIL 150253Z AUTO 15006KT 10SM CLR 09/M12 A3009 RMK AO2 SLP177 T00891117 53018


Station Type Date Time Source
KRIL Decoded METAR 2019/10/15 02:53 UTC NOAA

RIFLE GARFIELD COUNTY RGNL, CO, United States (KRIL) 39-31N 107-44W 1678M
Oct 14, 2019 - 10:53 PM EDT / 2019.10.15 0253 UTC
Wind: from the SSE (150 degrees) at 7 MPH (6 KT):0
Visibility: 10 mile(s):0
Sky conditions: clear
Temperature: 48.0 F (8.9 C)
Dew Point: 10.9 F (-11.7 C)
Relative Humidity: 21%
Pressure (altimeter): 30.09 in. Hg (1018 hPa)
Pressure tendency: 0.05 inches (1.8 hPa) higher than three hours ago
ob: KRIL 150253Z AUTO 15006KT 10SM CLR 09/M12 A3009 RMK AO2 SLP177 T00891117 53018
cycle: 3

Station Type Date Time Source
KRIL TAF 2019/10/14 18:33 UTC NOAA

TAF KRIL 141730Z 1418/1518 VRB03KT P6SM SKC
FM142100 26010G20KT P6SM SKC
FM150100 23008KT P6SM SKC
FM150200 19005KT P6SM SKC
FM150400 VRB03KT P6SM SKC

Example: see airport list